createdAt,value
2022-08-11T00:01:09.141Z,154506.63
2022-08-11T00:03:44.309Z,154460.00
2022-08-11T00:06:14.274Z,154423.75
2022-08-11T00:08:44.533Z,154423.75
2022-08-11T00:11:13.361Z,154436.72
2022-08-11T00:13:45.600Z,154453.50
2022-08-11T00:16:15.848Z,154418.56
2022-08-11T00:18:46.861Z,154391.31
2022-08-11T00:21:15.604Z,154426.31
2022-08-11T00:23:46.530Z,154410.81
2022-08-11T00:26:15.214Z,154430.22
2022-08-11T00:28:43.420Z,154405.63
2022-08-11T00:31:23.385Z,154373.19
2022-08-11T00:33:52.934Z,154377.09
2022-08-11T00:36:25.705Z,154381.00
2022-08-11T00:38:55.335Z,154358.94
2022-08-11T00:41:33.339Z,154348.59
2022-08-11T00:44:15.693Z,154347.31
2022-08-11T00:46:56.684Z,154309.78
2022-08-11T00:49:40.796Z,154314.97
2022-08-11T00:52:18.327Z,154336.97
2022-08-11T00:55:22.249Z,154307.19
2022-08-11T00:58:40.013Z,154300.72
2022-08-11T01:01:11.536Z,154311.06
2022-08-11T01:04:10.845Z,154302.03
2022-08-11T01:07:06.013Z,154283.91
2022-08-11T01:09:50.663Z,154247.69
2022-08-11T01:12:25.136Z,154223.06
2022-08-11T01:15:21.940Z,154217.91
2022-08-11T01:18:30.221Z,154184.25
2022-08-11T01:21:18.067Z,154193.34
2022-08-11T01:24:12.427Z,154189.44
2022-08-11T01:27:18.908Z,154177.81
2022-08-11T01:30:13.536Z,154146.75
2022-08-11T01:33:19.952Z,154133.75
2022-08-11T01:36:23.766Z,154110.47
2022-08-11T01:39:21.036Z,154118.22
2022-08-11T01:42:42.329Z,154123.41
2022-08-11T01:45:24.132Z,154115.63
2022-08-11T01:48:03.446Z,154089.75
2022-08-11T01:50:58.387Z,154085.91
2022-08-11T01:53:29.625Z,154060.06
2022-08-11T01:56:11.311Z,154053.56
2022-08-11T01:58:46.412Z,154019.91
2022-08-11T02:01:33.358Z,154012.19
2022-08-11T02:04:09.830Z,153999.25
2022-08-11T02:06:58.320Z,154009.59
2022-08-11T02:09:49.559Z,153991.50
2022-08-11T02:12:37.718Z,153983.72
2022-08-11T02:15:14.954Z,153968.19
2022-08-11T02:17:54.782Z,153981.13
2022-08-11T02:20:44.639Z,153987.63
2022-08-11T02:24:05.374Z,153977.28
2022-08-11T02:26:37.493Z,153952.66
2022-08-11T02:29:17.550Z,153952.66
2022-08-11T02:32:28.833Z,153955.25
2022-08-11T02:35:04.839Z,153991.50
2022-08-11T02:37:38.132Z,153951.44
2022-08-11T02:40:16.924Z,153953.97
2022-08-11T02:43:01.990Z,153944.94
2022-08-11T02:45:49.838Z,153960.47
2022-08-11T02:48:51.318Z,153939.75
2022-08-11T02:51:31.007Z,153942.34
2022-08-11T02:54:07.866Z,153926.81
2022-08-11T02:56:44.730Z,153929.41
2022-08-11T02:59:42.427Z,153895.81
2022-08-11T03:02:17.126Z,153875.13
2022-08-11T03:04:56.447Z,153880.31
2022-08-11T03:07:29.741Z,153881.59
2022-08-11T03:10:09.927Z,153875.13
2022-08-11T03:13:03.774Z,153853.13
2022-08-11T03:16:00.391Z,153854.41
2022-08-11T03:18:34.027Z,153833.72
2022-08-11T03:21:08.813Z,153846.63
2022-08-11T03:23:42.606Z,153846.63
2022-08-11T03:26:23.811Z,153833.72
2022-08-11T03:29:01.192Z,153783.31
2022-08-11T03:31:33.326Z,153802.72
2022-08-11T03:34:07.622Z,153766.50
2022-08-11T03:37:16.823Z,153797.53
2022-08-11T03:39:56.830Z,153776.81
2022-08-11T03:42:31.021Z,153774.28
2022-08-11T03:45:06.592Z,153782.00
2022-08-11T03:47:53.423Z,153787.19
2022-08-11T03:50:33.842Z,153730.34
2022-08-11T03:53:13.550Z,153714.81
2022-08-11T03:56:22.775Z,153723.84
2022-08-11T03:59:17.689Z,153756.16
2022-08-11T04:02:16.200Z,153757.47
2022-08-11T04:05:13.675Z,153756.16
2022-08-11T04:08:17.988Z,153771.69
2022-08-11T04:11:17.040Z,153763.91
2022-08-11T04:14:30.847Z,153774.28
2022-08-11T04:17:25.170Z,153771.69
2022-08-11T04:20:20.013Z,153807.84
2022-08-11T04:24:34.642Z,153829.84
2022-08-11T04:26:38.980Z,153844.09
2022-08-11T04:29:19.107Z,153853.13
2022-08-11T04:32:02.607Z,153871.28
2022-08-11T04:34:59.352Z,153890.63
2022-08-11T04:38:06.948Z,153920.38
2022-08-11T04:41:15.023Z,153947.53
2022-08-11T04:44:31.701Z,153965.66
2022-08-11T04:48:03.585Z,154000.53
2022-08-11T04:51:00.718Z,154021.22
2022-08-11T04:54:14.648Z,154097.53
2022-08-11T04:57:04.109Z,154102.69
2022-08-11T05:00:07.629Z,154104.00
2022-08-11T05:03:13.341Z,154144.13
2022-08-11T05:06:02.846Z,154203.66
2022-08-11T05:08:51.501Z,154264.47
2022-08-11T05:11:38.924Z,154289.09
2022-08-11T05:14:53.565Z,154353.81
2022-08-11T05:17:55.708Z,154390.03
2022-08-11T05:20:43.317Z,154418.56
2022-08-11T05:23:30.684Z,154439.25
2022-08-11T05:26:46.486Z,154472.94
2022-08-11T05:29:58.720Z,154514.38
2022-08-11T05:32:49.706Z,154573.97
2022-08-11T05:36:02.246Z,154599.88
2022-08-11T05:38:35.202Z,154586.94
2022-08-11T05:41:20.859Z,154615.38
2022-08-11T05:44:21.114Z,154602.44
2022-08-11T05:47:09.254Z,154653.03
2022-08-11T05:49:55.511Z,154680.25
2022-08-11T05:52:47.002Z,154651.75
2022-08-11T05:55:34.194Z,154698.34
2022-08-11T05:58:04.500Z,154748.94
2022-08-11T06:00:33.778Z,154789.09
2022-08-11T06:03:07.355Z,154752.78
2022-08-11T06:05:38.572Z,154773.53
2022-08-11T06:08:13.502Z,154815.00
2022-08-11T06:10:42.990Z,154846.09
2022-08-11T06:13:11.850Z,154866.84
2022-08-11T06:15:46.190Z,154936.91
2022-08-11T06:18:15.091Z,154952.47
2022-08-11T06:20:48.066Z,154987.47
2022-08-11T06:23:18.840Z,154991.38
2022-08-11T06:25:46.738Z,155021.19
2022-08-11T06:28:20.598Z,155076.94
2022-08-11T06:30:48.896Z,155117.19
2022-08-11T06:33:22.386Z,155148.34
2022-08-11T06:36:00.954Z,155191.16
2022-08-11T06:38:43.143Z,155240.44
2022-08-11T06:41:32.699Z,155275.50
2022-08-11T06:44:10.268Z,155297.53
2022-08-11T06:46:40.572Z,155326.16
2022-08-11T06:49:31.339Z,155320.94
2022-08-11T06:52:02.830Z,155326.16
2022-08-11T06:54:36.286Z,155279.34
2022-08-11T06:57:32.154Z,155323.56
2022-08-11T07:00:19.254Z,155376.75
2022-08-11T07:02:52.885Z,155445.56
2022-08-11T07:05:25.389Z,155541.69
2022-08-11T07:08:45.143Z,155607.94
2022-08-11T07:12:02.533Z,155823.63
2022-08-11T07:14:49.541Z,155793.78
2022-08-11T07:17:20.748Z,155845.75
2022-08-11T07:20:11.084Z,155847.06
2022-08-11T07:22:59.331Z,156095.44
2022-08-11T07:25:51.010Z,156337.47
2022-08-11T07:28:41.525Z,156341.34
2022-08-11T07:31:13.984Z,156544.44
2022-08-11T07:34:08.408Z,156509.31
2022-08-11T07:36:35.086Z,156660.41
2022-08-11T07:39:04.439Z,156590.03
2022-08-11T07:41:35.669Z,156463.72
2022-08-11T07:44:09.863Z,156458.56
2022-08-11T07:46:57.981Z,156453.34
2022-08-11T07:49:45.478Z,156314.03
2022-08-11T07:52:30.318Z,156291.91
2022-08-11T07:55:01.602Z,156289.31
2022-08-11T07:58:15.106Z,156301.00
2022-08-11T08:00:56.454Z,156396.00
2022-08-11T08:03:54.372Z,156475.44
2022-08-11T08:06:40.803Z,156528.84
2022-08-11T08:09:26.942Z,156603.03
2022-08-11T08:12:14.156Z,156670.81
2022-08-11T08:14:59.347Z,156623.94
2022-08-11T08:18:09.248Z,156642.16
2022-08-11T08:20:38.258Z,156657.78
2022-08-11T08:23:07.561Z,156745.06
2022-08-11T08:25:36.459Z,156819.34
2022-08-11T08:28:08.839Z,156913.16
2022-08-11T08:30:50.539Z,156881.91
2022-08-11T08:33:21.739Z,156831.06
2022-08-11T08:35:54.424Z,156894.94
2022-08-11T08:38:24.022Z,156943.19
2022-08-11T08:40:56.445Z,156751.56
2022-08-11T08:43:26.176Z,156746.38
2022-08-11T08:45:58.292Z,156828.44
2022-08-11T08:48:27.321Z,156897.50
2022-08-11T08:51:17.316Z,156851.94
2022-08-11T08:53:58.622Z,156947.09
2022-08-11T08:56:28.840Z,157035.69
2022-08-11T08:59:01.908Z,157044.84
2022-08-11T09:01:31.548Z,157200.00
2022-08-11T09:04:07.154Z,157099.66
2022-08-11T09:06:40.842Z,156884.47
2022-08-11T09:09:09.313Z,156931.41
2022-08-11T09:11:54.146Z,156964.06
2022-08-11T09:14:24.509Z,156827.19
2022-08-11T09:16:53.173Z,156900.13
2022-08-11T09:19:21.938Z,156940.56
2022-08-11T09:22:12.227Z,156834.97
2022-08-11T09:24:58.079Z,156769.81
2022-08-11T09:27:27.352Z,156694.22
2022-08-11T09:29:56.759Z,156621.34
2022-08-11T09:32:26.510Z,156600.44
2022-08-11T09:34:54.925Z,156566.59
2022-08-11T09:37:54.334Z,156638.22
2022-08-11T09:40:32.398Z,156571.78
2022-08-11T09:43:21.576Z,156588.72
2022-08-11T09:45:52.492Z,156665.56
2022-08-11T09:48:21.144Z,156642.16
2022-08-11T09:50:51.417Z,156566.59
2022-08-11T09:53:37.238Z,156590.03
2022-08-11T09:56:29.610Z,156741.16
2022-08-11T09:58:58.239Z,156793.28
2022-08-11T10:01:31.137Z,156840.22
2022-08-11T10:04:01.952Z,156803.69
2022-08-11T10:06:48.033Z,156782.88
2022-08-11T10:09:24.966Z,156790.69
2022-08-11T10:11:58.198Z,156904.03
2022-08-11T10:14:45.069Z,157119.19
2022-08-11T10:17:16.917Z,157171.31
2022-08-11T10:20:04.344Z,157030.50
2022-08-11T10:22:52.135Z,156962.75
2022-08-11T10:25:38.846Z,156988.81
2022-08-11T10:28:30.452Z,157077.41
2022-08-11T10:31:15.405Z,157248.28
2022-08-11T10:34:01.497Z,157053.97
2022-08-11T10:36:30.223Z,156975.78
2022-08-11T10:38:59.341Z,157072.22
2022-08-11T10:42:08.283Z,157134.81
2022-08-11T10:44:37.241Z,157046.16
2022-08-11T10:47:23.216Z,157153.09
2022-08-11T10:50:13.504Z,157231.31
2022-08-11T10:52:59.412Z,157215.66
2022-08-11T10:55:45.539Z,157114.00
2022-08-11T10:58:31.509Z,157114.00
2022-08-11T11:01:00.800Z,157069.59
2022-08-11T11:03:30.786Z,157215.66
2022-08-11T11:06:28.901Z,157265.25
2022-08-11T11:09:04.555Z,157215.66
2022-08-11T11:11:54.381Z,157316.16
2022-08-11T11:14:47.255Z,157335.69
2022-08-11T11:17:45.295Z,157344.84
2022-08-11T11:20:37.189Z,157323.97
2022-08-11T11:23:11.028Z,157197.41
2022-08-11T11:26:06.713Z,157201.31
2022-08-11T11:28:48.528Z,157181.78
2022-08-11T11:31:31.705Z,157249.59
2022-08-11T11:34:16.070Z,157415.31
2022-08-11T11:36:49.190Z,157402.22
2022-08-11T11:39:21.688Z,157416.59
2022-08-11T11:41:50.545Z,157488.38
2022-08-11T11:44:18.880Z,157275.72
2022-08-11T11:46:46.725Z,157283.53
2022-08-11T11:49:18.562Z,157338.31
2022-08-11T11:51:50.219Z,157343.53
2022-08-11T11:54:23.731Z,157317.47
2022-08-11T11:56:53.275Z,157327.88
2022-08-11T11:59:39.801Z,157442.69
2022-08-11T12:02:12.146Z,157406.19
2022-08-11T12:04:42.885Z,157406.19
2022-08-11T12:07:29.818Z,157314.84
2022-08-11T12:09:59.930Z,157233.94
2022-08-11T12:12:42.900Z,157173.94
2022-08-11T12:15:11.133Z,157264.00
2022-08-11T12:17:39.737Z,157273.09
2022-08-11T12:20:16.862Z,157205.25
2022-08-11T12:23:15.875Z,157171.31
2022-08-11T12:26:25.995Z,157237.81
2022-08-11T12:28:51.977Z,157181.78
2022-08-11T12:31:26.019Z,157162.22
2022-08-11T12:33:53.820Z,157299.19
2022-08-11T12:36:22.354Z,157331.81
2022-08-11T12:38:52.605Z,157351.34
2022-08-11T12:41:40.493Z,157346.13
2022-08-11T12:44:29.629Z,157303.13
2022-08-11T12:47:00.568Z,157346.13
2022-08-11T12:49:49.689Z,157414.03
2022-08-11T12:52:22.047Z,157335.69
2022-08-11T12:54:59.627Z,157376.13
2022-08-11T12:58:05.100Z,157333.06
2022-08-11T13:00:50.893Z,157385.28
2022-08-11T13:03:39.014Z,157267.88
2022-08-11T13:06:08.304Z,157224.78
2022-08-11T13:08:38.566Z,157210.44
2022-08-11T13:11:25.535Z,157260.06
2022-08-11T13:14:15.519Z,157274.41
2022-08-11T13:17:02.820Z,157278.28
2022-08-11T13:19:32.270Z,157228.69
2022-08-11T13:22:02.352Z,157252.16
2022-08-11T13:24:30.298Z,157314.84
2022-08-11T13:26:59.758Z,157346.13
2022-08-11T13:29:30.256Z,157280.91
2022-08-11T13:31:59.733Z,157163.53
2022-08-11T13:34:31.020Z,157186.97
2022-08-11T13:37:01.655Z,157273.09
2022-08-11T13:39:31.415Z,157322.66
2022-08-11T13:42:01.691Z,157280.91
2022-08-11T13:44:32.423Z,157258.75
2022-08-11T13:47:04.838Z,157220.91
2022-08-11T13:49:34.107Z,157185.66
2022-08-11T13:52:02.595Z,157230.00
2022-08-11T13:54:33.161Z,157275.72
2022-08-11T13:57:09.181Z,157288.75
2022-08-11T13:59:51.733Z,157271.78
2022-08-11T14:02:29.551Z,157325.25
2022-08-11T14:05:00.171Z,157361.78
2022-08-11T14:07:35.562Z,157252.16
2022-08-11T14:10:05.092Z,157258.75
2022-08-11T14:12:53.253Z,157246.97
2022-08-11T14:15:28.557Z,157257.44
2022-08-11T14:18:01.644Z,157243.06
2022-08-11T14:20:52.714Z,157284.84
2022-08-11T14:23:25.856Z,157213.03
2022-08-11T14:26:10.814Z,157210.44
2022-08-11T14:28:44.456Z,157160.91
2022-08-11T14:31:15.983Z,157214.34
2022-08-11T14:33:59.886Z,157218.28
2022-08-11T14:36:32.534Z,157252.16
2022-08-11T14:39:02.270Z,157278.28
2022-08-11T14:42:11.594Z,157273.09
2022-08-11T14:44:54.984Z,157254.84
2022-08-11T14:47:25.712Z,157244.34
2022-08-11T14:50:06.511Z,157249.59
2022-08-11T14:52:44.581Z,157265.25
2022-08-11T14:55:31.393Z,157252.16
2022-08-11T14:57:59.744Z,157260.06
2022-08-11T15:00:27.692Z,157244.34
2022-08-11T15:03:12.422Z,157262.69
2022-08-11T15:05:53.677Z,157201.31
2022-08-11T15:08:46.722Z,157151.78
2022-08-11T15:11:34.277Z,157171.31
2022-08-11T15:14:05.110Z,157150.47
2022-08-11T15:16:51.172Z,157127.03
2022-08-11T15:19:22.090Z,157147.88
2022-08-11T15:22:07.705Z,157179.16
2022-08-11T15:24:36.473Z,157143.94
2022-08-11T15:27:24.346Z,157158.28
2022-08-11T15:30:11.169Z,157173.94
2022-08-11T15:33:13.830Z,157150.47
2022-08-11T15:36:01.550Z,157159.59
2022-08-11T15:38:36.778Z,157149.16
2022-08-11T15:41:23.991Z,157119.19
2022-08-11T15:44:13.399Z,157106.16
2022-08-11T15:46:45.434Z,157090.44
2022-08-11T15:49:21.893Z,157077.41
2022-08-11T15:52:01.932Z,157080.03
2022-08-11T15:54:32.917Z,157114.00
2022-08-11T15:57:03.151Z,157119.19
2022-08-11T15:59:52.419Z,157068.31
2022-08-11T16:02:40.165Z,157033.06
2022-08-11T16:05:13.112Z,157022.66
2022-08-11T16:07:46.962Z,156996.59
2022-08-11T16:10:21.570Z,157007.00
2022-08-11T16:13:16.547Z,157065.69
2022-08-11T16:16:07.675Z,157034.38
2022-08-11T16:18:42.286Z,157022.66
2022-08-11T16:21:34.147Z,157003.13
2022-08-11T16:24:06.902Z,157004.44
2022-08-11T16:27:07.470Z,156988.81
2022-08-11T16:29:28.061Z,156973.16
2022-08-11T16:32:14.925Z,156965.31
2022-08-11T16:35:02.418Z,157004.44
2022-08-11T16:37:49.094Z,157005.72
2022-08-11T16:40:18.933Z,156993.97
2022-08-11T16:43:10.945Z,156935.31
2022-08-11T16:45:58.414Z,156967.91
2022-08-11T16:48:37.289Z,156971.84
2022-08-11T16:51:08.167Z,156952.28
2022-08-11T16:53:59.607Z,156936.63
2022-08-11T16:56:32.556Z,156924.84
2022-08-11T16:59:15.236Z,156902.72
2022-08-11T17:01:47.106Z,156871.44
2022-08-11T17:04:39.142Z,156907.97
2022-08-11T17:07:42.301Z,156859.72
2022-08-11T17:10:52.549Z,156863.66
2022-08-11T17:13:29.989Z,156853.22
2022-08-11T17:16:12.551Z,156840.22
2022-08-11T17:18:46.912Z,156833.66
2022-08-11T17:21:18.334Z,156832.38
2022-08-11T17:23:50.138Z,156788.06
2022-08-11T17:26:23.855Z,156788.06
2022-08-11T17:28:56.233Z,156760.66
2022-08-11T17:31:43.235Z,156806.31
2022-08-11T17:34:29.645Z,156776.34
2022-08-11T17:36:59.968Z,156756.78
2022-08-11T17:39:31.653Z,156773.72
2022-08-11T17:42:19.488Z,156717.72
2022-08-11T17:45:07.013Z,156672.13
2022-08-11T17:47:52.801Z,156689.06
2022-08-11T17:50:21.842Z,156655.16
2022-08-11T17:53:08.311Z,156655.16
2022-08-11T17:55:55.657Z,156552.28
2022-08-11T17:58:44.285Z,156548.34
2022-08-11T18:01:15.304Z,156532.72
2022-08-11T18:03:53.267Z,156535.34
2022-08-11T18:06:33.750Z,156478.06
2022-08-11T18:09:22.503Z,156420.72
2022-08-11T18:12:11.781Z,156454.63
2022-08-11T18:14:58.914Z,156369.97
2022-08-11T18:17:45.295Z,156360.88
2022-08-11T18:20:30.430Z,156324.47
2022-08-11T18:23:18.053Z,156298.41
2022-08-11T18:26:07.354Z,156259.31
2022-08-11T18:28:58.008Z,156181.28
2022-08-11T18:31:44.435Z,156183.91
2022-08-11T18:34:38.749Z,156155.28
2022-08-11T18:37:29.671Z,156140.97
2022-08-11T18:40:17.297Z,156140.97
2022-08-11T18:43:05.541Z,156116.28
2022-08-11T18:46:05.325Z,156121.44
2022-08-11T18:48:55.316Z,156064.22
2022-08-11T18:51:42.746Z,156033.00
2022-08-11T18:54:30.496Z,156001.78
2022-08-11T18:57:19.746Z,155955.00
2022-08-11T19:00:07.055Z,155917.25
2022-08-11T19:02:55.776Z,155871.75
2022-08-11T19:06:32.583Z,155837.94
2022-08-11T19:08:53.280Z,155827.56
2022-08-11T19:11:42.719Z,155783.34
2022-08-11T19:14:30.511Z,155726.22
2022-08-11T19:17:45.094Z,155694.97
2022-08-11T19:20:26.426Z,155674.16
2022-08-11T19:23:13.754Z,155656.00
2022-08-11T19:26:01.810Z,155622.22
2022-08-11T19:28:47.912Z,155571.59
2022-08-11T19:31:33.556Z,155575.50
2022-08-11T19:34:19.326Z,155567.69
2022-08-11T19:37:06.638Z,155552.09
2022-08-11T19:39:53.502Z,155513.13
2022-08-11T19:42:41.355Z,155504.00
2022-08-11T19:45:27.078Z,155491.03
2022-08-11T19:48:31.080Z,155442.97
2022-08-11T19:51:17.697Z,155429.97
2022-08-11T19:54:03.457Z,155414.44
2022-08-11T19:56:49.221Z,155415.69
2022-08-11T19:59:38.660Z,155410.53
2022-08-11T20:02:24.435Z,155392.34
2022-08-11T20:05:09.990Z,155348.19
2022-08-11T20:07:55.644Z,155328.75
2022-08-11T20:10:41.548Z,155336.53
2022-08-11T20:13:28.372Z,155305.41
2022-08-11T20:16:18.495Z,155271.59
2022-08-11T20:19:05.837Z,155243.03
2022-08-11T20:21:51.648Z,155271.59
2022-08-11T20:24:41.136Z,155230.06
2022-08-11T20:27:27.878Z,155197.66
2022-08-11T20:30:15.235Z,155183.38
2022-08-11T20:33:03.378Z,155172.97
2022-08-11T20:35:50.390Z,155148.34
2022-08-11T20:38:36.107Z,155131.47
2022-08-11T20:41:22.518Z,155119.78
2022-08-11T20:44:09.659Z,155131.47
2022-08-11T20:46:57.030Z,155119.78
2022-08-11T20:49:53.712Z,155063.97
2022-08-11T20:52:47.274Z,155069.16
2022-08-11T20:55:51.809Z,155063.97
2022-08-11T21:01:46.995Z,155014.69
2022-08-11T21:04:37.105Z,154951.19
2022-08-11T21:07:44.149Z,154978.41
2022-08-11T21:10:44.185Z,154955.03
2022-08-11T21:13:33.317Z,154947.28
2022-08-11T21:16:26.402Z,154890.22
2022-08-11T21:19:16.448Z,154894.13
2022-08-11T21:22:03.602Z,154892.81
2022-08-11T21:24:52.251Z,154882.47
2022-08-11T21:27:39.255Z,154895.44
2022-08-11T21:30:25.516Z,154877.25
2022-08-11T21:33:12.804Z,154840.94
2022-08-11T21:35:58.551Z,154843.53
2022-08-11T21:38:44.709Z,154846.09
2022-08-11T21:41:32.774Z,154822.75
2022-08-11T21:44:19.457Z,154826.66
2022-08-11T21:47:05.960Z,154822.75
2022-08-11T21:49:53.957Z,154804.59
2022-08-11T21:52:39.086Z,154787.78
2022-08-11T21:55:25.291Z,154783.91
2022-08-11T21:58:13.647Z,154769.63
2022-08-11T22:00:58.845Z,154773.53
2022-08-11T22:03:50.293Z,154757.97
2022-08-11T22:06:36.411Z,154713.91
2022-08-11T22:09:21.722Z,154695.81
2022-08-11T22:12:34.163Z,154711.31
2022-08-11T22:15:14.107Z,154662.09
2022-08-11T22:17:58.912Z,154659.50
2022-08-11T22:20:45.673Z,154680.25
2022-08-11T22:23:35.925Z,154633.53
2022-08-11T22:26:23.211Z,154623.19
2022-08-11T22:29:10.016Z,154643.94
2022-08-11T22:31:59.122Z,154603.72
2022-08-11T22:34:52.730Z,154624.50
2022-08-11T22:37:39.421Z,154606.34
2022-08-11T22:40:26.198Z,154612.84
2022-08-11T22:43:10.908Z,154612.84
2022-08-11T22:45:56.216Z,154532.53
2022-08-11T22:48:46.820Z,154527.34
2022-08-11T22:51:33.161Z,154571.38
2022-08-11T22:54:20.523Z,154580.44
2022-08-11T22:57:07.196Z,154493.63
2022-08-11T22:59:53.942Z,154560.97
2022-08-11T23:02:39.689Z,154594.69
2022-08-11T23:05:27.618Z,154545.47
2022-08-11T23:08:14.050Z,154541.59
2022-08-11T23:11:00.409Z,154449.66
2022-08-11T23:13:47.257Z,154465.19
2022-08-11T23:16:32.616Z,154478.16
2022-08-11T23:20:08.218Z,154465.19
2022-08-11T23:22:24.142Z,154465.19
2022-08-11T23:25:24.024Z,154444.44
2022-08-11T23:28:09.281Z,154405.63
2022-08-11T23:30:54.954Z,154430.22
2022-08-11T23:33:41.664Z,154415.97
2022-08-11T23:36:36.226Z,154423.75
2022-08-11T23:39:33.859Z,154444.44
2022-08-11T23:42:18.975Z,154418.56
2022-08-11T23:45:05.530Z,154405.63
2022-08-11T23:47:55.330Z,154400.44
2022-08-11T23:50:41.157Z,154387.44
2022-08-11T23:53:27.062Z,154355.09
2022-08-11T23:56:13.805Z,154330.50
2022-08-11T23:58:59.623Z,154329.22
